createdAt,value
2023-05-21T00:05:31.265Z,42.1
2023-05-21T00:11:22.826Z,42.1
2023-05-21T00:17:13.361Z,42.1
2023-05-21T00:23:05.632Z,42.1
2023-05-21T00:28:57.412Z,42.1
2023-05-21T00:34:34.138Z,42
2023-05-21T00:40:25.773Z,42
2023-05-21T00:46:02.470Z,42
2023-05-21T00:51:37.710Z,41.9
2023-05-21T00:57:30.219Z,41.9
2023-05-21T01:03:21.858Z,41.9
2023-05-21T01:08:57.457Z,41.9
2023-05-21T01:14:34.175Z,41.9
2023-05-21T01:20:10.705Z,41.9
2023-05-21T01:26:02.180Z,41.9
2023-05-21T01:31:54.528Z,41.8
2023-05-21T01:37:47.563Z,41.8
2023-05-21T01:43:38.562Z,41.8
2023-05-21T01:49:30.784Z,41.8
2023-05-21T01:55:22.332Z,41.8
2023-05-21T02:01:12.694Z,41.7
2023-05-21T02:07:05.774Z,41.7
2023-05-21T02:12:57.078Z,41.7
2023-05-21T02:18:48.908Z,41.6
2023-05-21T02:24:41.092Z,41.6
2023-05-21T02:30:17.765Z,41.6
2023-05-21T02:35:54.046Z,41.6
2023-05-21T02:41:46.272Z,41.6
2023-05-21T02:47:38.346Z,41.6
2023-05-21T02:53:29.574Z,41.5
2023-05-21T02:59:21.258Z,41.5
2023-05-21T03:05:13.834Z,41.4
2023-05-21T03:11:04.645Z,41.4
2023-05-21T03:16:57.617Z,41.4
2023-05-21T03:22:49.422Z,41.4
2023-05-21T03:28:41.218Z,41.4
2023-05-21T03:34:35.286Z,41.4
2023-05-21T03:40:26.753Z,41.3
2023-05-21T03:46:18.028Z,41.3
2023-05-21T03:52:10.763Z,41.3
2023-05-21T03:58:01.948Z,41.3
2023-05-21T04:03:57.031Z,41.2
2023-05-21T04:09:52.947Z,41.2
2023-05-21T04:15:44.681Z,41.2
2023-05-21T04:21:35.986Z,41.1
2023-05-21T04:27:27.883Z,41.1
2023-05-21T04:33:18.787Z,41.1
2023-05-21T04:38:54.488Z,41.1
2023-05-21T04:44:50.305Z,41.1
2023-05-21T04:50:42.092Z,41
2023-05-21T04:56:32.984Z,41
2023-05-21T05:02:28.868Z,41
2023-05-21T05:08:21.582Z,40.9
2023-05-21T05:14:13.938Z,40.9
2023-05-21T05:19:52.347Z,40.9
2023-05-21T05:25:28.280Z,40.9
2023-05-21T05:31:19.126Z,40.9
2023-05-21T05:37:10.840Z,40.8
2023-05-21T05:43:02.189Z,40.8
2023-05-21T05:48:57.048Z,40.8
2023-05-21T05:54:48.310Z,40.8
2023-05-21T06:00:40.453Z,40.7
2023-05-21T06:06:32.598Z,40.7
2023-05-21T06:12:12.400Z,40.7
2023-05-21T06:18:07.935Z,40.7
2023-05-21T06:23:58.747Z,40.6
2023-05-21T06:29:51.290Z,40.6
2023-05-21T06:35:43.499Z,40.6
2023-05-21T06:41:34.783Z,40.6
2023-05-21T06:47:26.705Z,40.6
2023-05-21T06:53:18.158Z,40.5
2023-05-21T06:59:12.029Z,40.5
2023-05-21T07:05:04.563Z,39.9
2023-05-21T07:10:55.492Z,40.1
2023-05-21T07:16:46.600Z,40
2023-05-21T07:22:38.397Z,39.9
2023-05-21T07:28:46.070Z,39.9
2023-05-21T07:34:37.017Z,40.3
2023-05-21T07:40:30.483Z,40.8
2023-05-21T07:46:22.452Z,40.9
2023-05-21T07:52:15.510Z,41.4
2023-05-21T07:58:09.322Z,42.1
2023-05-21T08:04:02.118Z,42.7
2023-05-21T08:09:56.192Z,43.1
2023-05-21T08:15:33.780Z,43.5
2023-05-21T08:21:29.238Z,44
2023-05-21T08:27:20.419Z,44.4
2023-05-21T08:33:12.910Z,44.7
2023-05-21T08:39:04.438Z,44.7
2023-05-21T08:45:12.457Z,45.1
2023-05-21T08:50:49.633Z,45.6
2023-05-21T08:56:49.746Z,46.2
2023-05-21T09:02:26.050Z,46.6
2023-05-21T09:08:33.698Z,47.1
2023-05-21T09:14:28.220Z,47.6
2023-05-21T09:20:20.066Z,48.1
2023-05-21T09:26:15.911Z,48.6
2023-05-21T09:32:10.335Z,49.1
2023-05-21T09:38:15.835Z,49.5
2023-05-21T09:44:12.179Z,49.9
2023-05-21T09:50:05.929Z,50.3
2023-05-21T09:55:57.725Z,50.6
2023-05-21T10:01:50.025Z,50.9
2023-05-21T10:07:43.124Z,51.3
2023-05-21T10:13:35.201Z,51.8
2023-05-21T10:19:28.849Z,52.3
2023-05-21T10:25:20.543Z,52.8
2023-05-21T10:31:15.271Z,53.3
2023-05-21T10:37:07.861Z,53.8
2023-05-21T10:43:01.084Z,54.3
2023-05-21T10:48:53.509Z,54.8
2023-05-21T10:54:32.837Z,55.1
2023-05-21T11:00:09.871Z,55
2023-05-21T11:06:02.486Z,54.9
2023-05-21T11:11:54.431Z,54.9
2023-05-21T11:17:30.856Z,54.8
2023-05-21T11:23:06.970Z,54.8
2023-05-21T11:28:45.591Z,54.7
2023-05-21T11:34:23.114Z,54.6
2023-05-21T11:40:16.089Z,54.6
2023-05-21T11:45:52.997Z,54.5
2023-05-21T11:51:49.152Z,54.4
2023-05-21T11:57:41.128Z,54.3
2023-05-21T12:03:34.602Z,54.3
2023-05-21T12:09:11.692Z,54.2
2023-05-21T12:15:20.048Z,54.1
2023-05-21T12:21:13.087Z,54
2023-05-21T12:27:04.378Z,53.9
2023-05-21T12:32:56.480Z,53.9
2023-05-21T12:38:48.672Z,53.8
2023-05-21T12:44:39.505Z,53.7
2023-05-21T12:50:30.977Z,53.6
2023-05-21T12:56:22.253Z,53.6
2023-05-21T13:01:59.211Z,53.4
2023-05-21T13:07:53.893Z,53
2023-05-21T13:13:49.976Z,52.6
2023-05-21T13:19:46.008Z,48.8
2023-05-21T13:25:23.857Z,47.3
2023-05-21T13:31:01.619Z,46.4
2023-05-21T13:36:55.317Z,45.8
2023-05-21T13:42:46.549Z,45.3
2023-05-21T13:48:42.616Z,44.9
2023-05-21T13:54:29.906Z,43.9
2023-05-21T14:00:23.161Z,43.6
2023-05-21T14:06:01.976Z,43.5
2023-05-21T14:11:54.460Z,43.3
2023-05-21T14:17:57.791Z,43.3
2023-05-21T14:23:34.598Z,43.2
2023-05-21T14:29:26.092Z,42.9
2023-05-21T14:35:18.634Z,42.8
2023-05-21T14:41:10.920Z,42.8
2023-05-21T14:47:15.025Z,42.8
2023-05-21T14:53:07.344Z,42.3
2023-05-21T14:59:00.471Z,42.3
2023-05-21T15:04:54.350Z,42.2
2023-05-21T15:10:30.356Z,42.1
2023-05-21T15:16:08.014Z,42
2023-05-21T15:22:01.374Z,42
2023-05-21T15:28:05.269Z,42
2023-05-21T15:33:58.493Z,42
2023-05-21T15:39:53.212Z,42
2023-05-21T15:45:46.006Z,41.9
2023-05-21T15:51:40.584Z,41.8
2023-05-21T15:57:17.310Z,41.9
2023-05-21T16:02:53.623Z,41.9
2023-05-21T16:08:31.198Z,41.9
2023-05-21T16:14:23.872Z,41.9
2023-05-21T16:20:16.245Z,41.9
2023-05-21T16:26:08.946Z,41.9
2023-05-21T16:32:01.452Z,41.9
2023-05-21T16:37:56.332Z,41.9
2023-05-21T16:43:50.746Z,41.9
2023-05-21T16:49:44.079Z,42
2023-05-21T16:55:04.682Z,41.9
2023-05-21T17:00:42.658Z,41.9
2023-05-21T17:06:35.917Z,41.9
2023-05-21T17:12:27.151Z,41.9
2023-05-21T17:18:35.800Z,41.9
2023-05-21T17:24:30.081Z,41.9
2023-05-21T17:30:22.166Z,41.9
2023-05-21T17:36:14.163Z,41.9
2023-05-21T17:41:50.647Z,41.9
2023-05-21T17:47:42.223Z,41.9
2023-05-21T17:53:36.322Z,41.9
2023-05-21T17:59:27.996Z,41.9
2023-05-21T18:05:20.060Z,41.9
2023-05-21T18:11:13.365Z,41.9
2023-05-21T18:17:05.558Z,41.9
2023-05-21T18:22:27.084Z,41.9
2023-05-21T18:28:19.517Z,41.9
2023-05-21T18:33:56.650Z,41.9
2023-05-21T18:39:48.282Z,41.9
2023-05-21T18:45:53.053Z,41.9
2023-05-21T18:51:45.540Z,42
2023-05-21T18:57:37.909Z,42
2023-05-21T19:03:30.657Z,42
2023-05-21T19:09:23.760Z,42
2023-05-21T19:20:53.927Z,42
2023-05-21T19:26:58.944Z,42
2023-05-21T19:32:52.656Z,42
2023-05-21T19:38:55.437Z,42
2023-05-21T19:44:47.937Z,42
2023-05-21T19:50:24.886Z,42
2023-05-21T19:56:19.821Z,42
2023-05-21T20:02:15.886Z,42
2023-05-21T20:08:07.358Z,42
2023-05-21T20:13:59.843Z,42
2023-05-21T20:19:52.618Z,42.1
2023-05-21T20:25:44.419Z,42
2023-05-21T20:31:36.462Z,42
2023-05-21T20:37:37.750Z,42
2023-05-21T20:49:07.234Z,42
2023-05-21T20:55:00.299Z,42
2023-05-21T21:01:08.896Z,42
2023-05-21T21:07:02.255Z,42
2023-05-21T21:13:14.036Z,42
2023-05-21T21:19:05.565Z,42
2023-05-21T21:24:57.879Z,42
2023-05-21T21:30:49.900Z,42
2023-05-21T21:36:41.498Z,41.9
2023-05-21T21:42:34.159Z,41.9
2023-05-21T21:48:26.260Z,41.9
2023-05-21T21:54:18.212Z,41.9
2023-05-21T22:00:10.832Z,41.9
2023-05-21T22:06:05.093Z,41.9
2023-05-21T22:11:56.988Z,41.9
2023-05-21T22:17:49.550Z,41.9
2023-05-21T22:23:50.466Z,41.9
2023-05-21T22:29:48.821Z,41.9
2023-05-21T22:35:41.936Z,41.9
2023-05-21T22:41:33.264Z,41.9
2023-05-21T22:47:24.435Z,41.9
2023-05-21T22:53:15.870Z,41.8
2023-05-21T22:58:51.693Z,41.9
2023-05-21T23:04:59.253Z,41.8
2023-05-21T23:10:51.313Z,41.8
2023-05-21T23:16:42.513Z,41.8
2023-05-21T23:22:34.772Z,41.8
2023-05-21T23:28:26.698Z,41.8
2023-05-21T23:34:18.897Z,41.8
2023-05-21T23:40:10.007Z,41.8
2023-05-21T23:46:02.292Z,41.8
2023-05-21T23:51:54.309Z,41.7
2023-05-21T23:57:29.555Z,41.7
